Time;durP1;ratioP1;P1;durP2;ratioP2;P2;SDS_P1;SDS_P2;PMS_P1;PMS_P2;Temp;Humidity;BMP_temperature;BMP_pressure;BME280_temperature;BME280_humidity;BME280_pressure;Samples;Min_cycle;Max_cycle;Signal;HPM_P1;HPM_P2
2022/05/09 00:01:11;;;;;;;9.90;5.07;;;;;;;10.18;87.79;99441.41;4992636;28;20181;-87
2022/05/09 00:03:37;;;;;;;8.40;4.60;;;;;;;9.75;88.42;99424.22;4966789;29;20171;-88
2022/05/09 00:06:02;;;;;;;8.43;5.00;;;;;;;8.27;89.46;99162.91;4963000;29;20192;-87
2022/05/09 00:08:28;;;;;;;11.33;5.20;;;;;;;11.01;89.02;99589.53;4961715;29;20257;-87
2022/05/09 00:10:53;;;;;;;8.53;4.90;;;;;;;8.90;88.79;99245.88;4960920;29;20555;-87
2022/05/09 00:13:19;;;;;;;7.60;5.10;;;;;;;8.74;89.23;99218.16;4944171;29;20236;-88
2022/05/09 00:15:44;;;;;;;9.47;4.90;;;;;;;8.95;89.82;99288.16;4963702;29;20193;-88
2022/05/09 00:18:09;;;;;;;9.90;5.03;;;;;;;10.32;90.71;99527.28;4970772;29;20172;-87
2022/05/09 00:20:35;;;;;;;12.73;5.23;;;;;;;10.07;91.26;99492.34;4979388;28;20164;-87
2022/05/09 00:23:00;;;;;;;8.17;4.77;;;;;;;10.43;91.41;99542.97;4978374;28;20181;-88
2022/05/09 00:25:27;;;;;;;8.00;4.83;;;;;;;10.94;91.68;99628.91;4967709;29;20232;-88
2022/05/09 00:27:54;;;;;;;7.47;5.10;;;;;;;8.38;92.50;99213.88;4947868;29;20177;-89
2022/05/09 00:30:21;;;;;;;13.00;5.57;;;;;;;8.94;92.77;99309.13;4963185;29;20180;-89
2022/05/09 00:32:47;;;;;;;9.77;5.47;;;;;;;9.70;92.27;99440.81;4945364;29;20287;-88
2022/05/09 00:35:13;;;;;;;9.27;5.90;;;;;;;8.23;92.28;99175.28;4944881;29;20200;-88
2022/05/09 00:37:38;;;;;;;9.23;5.80;;;;;;;9.63;93.20;99436.28;4965932;29;20235;-88
2022/05/09 00:40:08;;;;;;;8.87;5.80;;;;;;;8.82;93.56;99300.16;4971927;29;20263;-88
2022/05/09 00:42:34;;;;;;;15.17;5.90;;;;;;;8.97;94.00;99335.41;4946178;29;20165;-88
2022/05/09 00:45:01;;;;;;;9.23;5.80;;;;;;;10.48;93.40;99576.94;4949498;29;20177;-90
2022/05/09 00:47:27;;;;;;;9.30;5.90;;;;;;;8.75;94.67;99305.72;4968289;29;20173;-89
2022/05/09 00:49:57;;;;;;;11.00;5.90;;;;;;;8.08;93.74;99182.94;4966334;29;20172;-89
2022/05/09 00:52:48;;;;;;;10.93;5.87;;;;;;;11.97;96.10;99873.66;4960522;29;20200;-89
2022/05/09 00:55:17;;;;;;;10.83;6.00;;;;;;;11.99;96.05;99866.97;4944311;29;20200;-88
2022/05/09 00:58:06;;;;;;;9.97;5.60;;;;;;;9.91;95.60;99507.59;4966159;29;20175;-88
2022/05/09 01:00:33;;;;;;;11.30;5.60;;;;;;;9.60;95.23;99453.84;4942954;29;20172;-89
2022/05/09 01:03:05;;;;;;;11.73;5.63;;;;;;;11.21;95.74;99728.09;4941891;29;20168;-88
2022/05/09 01:05:30;;;;;;;10.17;5.93;;;;;;;11.80;96.46;99840.78;4944943;29;20169;-89
2022/05/09 01:07:57;;;;;;;9.77;6.27;;;;;;;10.42;96.54;99639.91;4958806;29;20180;-88
2022/05/09 01:10:36;;;;;;;10.87;5.93;;;;;;;9.30;96.87;99452.34;4940078;29;20200;-88
2022/05/09 01:13:08;;;;;;;11.67;5.87;;;;;;;7.45;96.70;99140.25;4944199;29;20287;-87
2022/05/09 01:15:35;;;;;;;8.97;5.60;;;;;;;8.69;96.06;99338.22;4962436;29;20610;-87
2022/05/09 01:18:03;;;;;;;10.93;5.70;;;;;;;7.71;95.90;99162.59;4942924;29;20185;-87
2022/05/09 01:20:30;;;;;;;13.77;5.73;;;;;;;9.96;96.00;99549.16;4946449;29;20633;-88
2022/05/09 01:22:57;;;;;;;11.20;5.70;;;;;;;11.67;97.31;99838.41;4981550;28;20234;-88
2022/05/09 01:25:23;;;;;;;8.27;5.93;;;;;;;11.65;96.86;99834.06;4953353;29;20181;-89
2022/05/09 01:27:49;;;;;;;10.10;5.70;;;;;;;10.31;97.40;99633.47;4954907;29;20172;-85
2022/05/09 01:30:45;;;;;;;11.00;6.07;;;;;;;11.79;97.41;99860.97;4977776;29;20152;-88
2022/05/09 01:33:41;;;;;;;10.47;6.00;;;;;;;11.64;97.43;99845.03;4969835;29;20200;-89
2022/05/09 01:36:15;;;;;;;12.60;6.13;;;;;;;11.67;97.92;99858.72;4905343;29;20198;-89
2022/05/09 01:38:43;;;;;;;11.27;6.10;;;;;;;11.69;97.95;99867.31;4900808;29;20726;-89
2022/05/09 01:41:09;;;;;;;8.83;5.90;;;;;;;11.79;97.36;99859.31;4901758;29;20190;-89
2022/05/09 01:43:38;;;;;;;12.70;6.57;;;;;;;11.32;97.74;99790.28;4886958;29;20246;-88
2022/05/09 01:46:16;;;;;;;12.57;6.80;;;;;;;10.97;97.72;99726.97;4901303;29;20681;-88
2022/05/09 01:51:26;;;;;;;10.97;6.70;;;;;;;11.39;98.79;99806.66;4899381;29;20243;-88
2022/05/09 01:53:52;;;;;;;12.70;7.10;;;;;;;9.52;98.84;99497.22;4901079;29;20198;-88
2022/05/09 01:56:23;;;;;;;11.87;7.10;;;;;;;8.67;99.01;99372.63;4898154;29;20179;-88
2022/05/09 01:58:49;;;;;;;12.87;6.83;;;;;;;11.50;99.14;99836.78;4918699;29;20244;-88
2022/05/09 02:01:18;;;;;;;12.10;7.70;;;;;;;8.07;99.15;99274.50;4906527;29;20180;-86
2022/05/09 02:03:47;;;;;;;16.40;7.60;;;;;;;6.33;99.15;98982.50;4889713;29;20175;-89
2022/05/09 02:06:12;;;;;;;14.73;7.37;;;;;;;8.98;99.50;99419.59;4885247;29;20245;-88
2022/05/09 02:08:39;;;;;;;16.07;7.20;;;;;;;7.84;99.59;99226.19;4885858;29;20206;-88
2022/05/09 02:11:05;;;;;;;12.43;7.10;;;;;;;8.99;99.80;99446.53;4879741;29;20179;-86
2022/05/09 02:13:31;;;;;;;11.67;7.03;;;;;;;11.34;100.00;99838.53;4943119;29;20200;-87
2022/05/09 02:15:57;;;;;;;13.47;7.73;;;;;;;9.30;100.00;99505.38;4936863;29;20191;-87
2022/05/09 02:18:23;;;;;;;15.13;8.10;;;;;;;8.47;100.00;99378.28;4938003;29;20183;-87
2022/05/09 02:20:48;;;;;;;15.20;7.63;;;;;;;8.06;100.00;99302.13;4955519;29;20185;-87
2022/05/09 02:23:14;;;;;;;12.53;7.67;;;;;;;11.46;100.00;99883.06;4954529;29;20200;-88
2022/05/09 02:25:42;;;;;;;12.30;7.37;;;;;;;10.14;100.00;99687.44;4942592;29;20597;-88
2022/05/09 02:28:09;;;;;;;12.27;7.20;;;;;;;8.46;100.00;99375.72;4953971;29;20179;-87
2022/05/09 02:30:35;;;;;;;11.20;7.37;;;;;;;10.23;100.00;99676.13;4954387;29;20188;-88
2022/05/09 02:33:02;;;;;;;14.63;8.03;;;;;;;9.84;100.00;99633.63;4936934;29;20200;-89
2022/05/09 02:35:27;;;;;;;13.00;8.13;;;;;;;9.18;100.00;99527.50;4953505;29;20272;-88
2022/05/09 02:37:53;;;;;;;12.80;7.37;;;;;;;10.13;100.00;99699.25;4956266;29;20252;-89
2022/05/09 02:40:19;;;;;;;15.70;8.00;;;;;;;9.57;100.00;99597.72;4961948;28;20199;-87
2022/05/09 02:42:44;;;;;;;15.13;7.87;;;;;;;8.98;100.00;99495.31;4978003;28;20172;-87
2022/05/09 02:45:10;;;;;;;12.80;8.20;;;;;;;8.52;100.00;99416.34;4959560;29;20604;-87
2022/05/09 02:47:36;;;;;;;15.10;8.13;;;;;;;9.71;100.00;99627.09;4969244;28;20173;-89
2022/05/09 02:50:01;;;;;;;13.97;8.03;;;;;;;7.70;100.00;99347.31;4953563;29;20183;-88
2022/05/09 02:52:27;;;;;;;19.47;8.63;;;;;;;8.35;100.00;99528.97;4936973;29;20209;-89
2022/05/09 02:54:52;;;;;;;18.23;9.10;;;;;;;7.50;100.00;99368.00;4943043;29;20177;-88
2022/05/09 02:57:18;;;;;;;15.50;9.60;;;;;;;7.06;100.00;99350.44;4951149;29;20611;-88
2022/05/09 02:59:44;;;;;;;16.23;10.50;;;;;;;7.06;100.00;99370.56;4936688;29;20675;-88
2022/05/09 03:02:09;;;;;;;19.13;10.57;;;;;;;7.19;100.00;99404.88;4956084;29;20169;-88
2022/05/09 03:04:39;;;;;;;19.33;11.37;;;;;;;8.52;100.00;99631.69;4958400;29;20172;-88
2022/05/09 03:07:11;;;;;;;18.70;11.10;;;;;;;7.90;100.00;99518.88;4937144;29;20212;-88
2022/05/09 03:09:37;;;;;;;19.27;10.57;;;;;;;9.32;100.00;99776.63;4935192;29;20175;-88
2022/05/09 03:12:04;;;;;;;22.70;12.63;;;;;;;7.90;100.00;99523.91;4936406;29;20243;-88
2022/05/09 03:14:31;;;;;;;20.37;11.67;;;;;;;7.25;100.00;99432.06;4952457;29;20169;-87
2022/05/09 03:16:57;;;;;;;22.27;13.10;;;;;;;7.47;100.00;99455.16;4942466;29;20181;-87
2022/05/09 03:19:24;;;;;;;25.97;12.80;;;;;;;7.13;100.00;99354.19;4936158;29;20181;-88
2022/05/09 03:21:51;;;;;;;26.60;13.40;;;;;;;10.28;100.00;99904.94;4953278;28;20282;-87
2022/05/09 03:24:16;;;;;;;30.97;18.07;;;;;;;8.93;100.00;99676.00;4952719;28;20188;-88
2022/05/09 03:26:42;;;;;;;34.60;20.40;;;;;;;7.66;100.00;99471.34;4936094;29;20195;-88
2022/05/09 03:29:07;;;;;;;30.93;16.90;;;;;;;8.59;100.00;99638.81;4940303;29;20176;-88
2022/05/09 03:31:34;;;;;;;33.87;18.73;;;;;;;8.32;100.00;99574.25;4948109;29;20196;-89
2022/05/09 03:33:59;;;;;;;31.17;18.50;;;;;;;10.36;100.00;99931.53;4941355;29;20569;-89
2022/05/09 03:36:24;;;;;;;28.30;16.27;;;;;;;8.66;100.00;99622.34;4956916;29;20172;-89
2022/05/09 03:38:50;;;;;;;29.30;13.90;;;;;;;8.69;100.00;99635.13;4958693;29;20187;-90
2022/05/09 03:41:15;;;;;;;33.17;13.10;;;;;;;7.75;100.00;99439.91;4942982;28;20218;-89
2022/05/09 03:43:41;;;;;;;36.00;13.40;;;;;;;6.98;100.00;99333.16;4958095;29;20548;-88
2022/05/09 03:46:06;;;;;;;30.23;12.50;;;;;;;7.58;100.00;99436.47;4943190;28;20176;-88
2022/05/09 03:48:32;;;;;;;37.07;12.87;;;;;;;8.92;100.00;99669.19;4961624;29;20173;-87
2022/05/09 03:50:58;;;;;;;27.40;12.10;;;;;;;7.33;99.62;99398.97;4944917;29;20199;-89
2022/05/09 03:53:25;;;;;;;32.33;14.23;;;;;;;8.93;99.59;99636.44;4943325;29;20172;-89
2022/05/09 03:55:50;;;;;;;37.10;14.70;;;;;;;6.87;98.65;99309.91;4940551;29;20172;-89
2022/05/09 03:58:16;;;;;;;33.63;13.93;;;;;;;6.90;98.35;99292.47;4954185;29;20622;-88
2022/05/09 04:00:43;;;;;;;33.63;13.07;;;;;;;8.18;97.97;99489.38;4956188;29;20177;-88
2022/05/09 04:03:09;;;;;;;31.50;13.97;;;;;;;8.52;97.71;99532.41;4939710;29;20157;-88
2022/05/09 04:05:35;;;;;;;28.53;16.03;;;;;;;9.46;96.79;99689.81;4956507;29;20704;-89
2022/05/09 04:08:04;;;;;;;40.27;19.57;;;;;;;11.07;97.20;99958.03;4940195;29;20191;-88
2022/05/09 04:10:33;;;;;;;33.77;15.67;;;;;;;6.65;94.65;99188.75;4939227;29;20700;-88
2022/05/09 04:13:00;;;;;;;92.40;38.97;;;;;;;8.04;94.86;99432.28;4942140;28;20243;-88
2022/05/09 04:18:10;;;;;;;27.73;12.00;;;;;;;9.63;96.21;99658.72;4962919;29;20284;-89
2022/05/09 04:20:37;;;;;;;27.23;12.60;;;;;;;11.24;96.25;99936.94;4963674;28;20689;-89
2022/05/09 04:23:04;;;;;;;27.57;12.70;;;;;;;11.27;96.26;99942.16;4962508;29;20232;-87
2022/05/09 04:25:33;;;;;;;26.60;11.90;;;;;;;10.80;95.80;99821.50;4949166;29;20192;-89
2022/05/09 04:28:00;;;;;;;27.90;13.33;;;;;;;11.27;95.59;99900.72;4945330;28;20694;-90
2022/05/09 04:30:25;;;;;;;30.87;12.77;;;;;;;10.96;95.52;99841.75;4959824;28;20187;-88
2022/05/09 04:32:50;;;;;;;28.03;13.27;;;;;;;11.51;95.19;99923.88;4961132;28;20200;-90
2022/05/09 04:35:20;;;;;;;28.73;13.10;;;;;;;9.77;94.81;99622.38;4949769;29;20183;-88
2022/05/09 04:37:47;;;;;;;24.40;12.90;;;;;;;11.79;94.09;99940.50;4974010;28;20181;-87
2022/05/09 04:40:19;;;;;;;27.83;13.67;;;;;;;11.57;92.54;99896.25;4973157;29;20184;-87
2022/05/09 04:42:45;;;;;;;30.37;16.20;;;;;;;10.83;92.00;99756.69;4966706;29;20224;-88
2022/05/09 04:45:15;;;;;;;28.83;15.07;;;;;;;12.10;91.48;99941.94;4960534;28;20193;-88
2022/05/09 04:47:41;;;;;;;20.77;12.33;;;;;;;8.83;91.36;99449.97;4962779;28;20181;-88
2022/05/09 04:50:09;;;;;;;22.33;12.37;;;;;;;9.42;91.19;99538.88;4955612;28;20278;-87
2022/05/09 04:52:35;;;;;;;22.47;12.33;;;;;;;11.42;94.78;99946.25;4958821;29;20211;-89
2022/05/09 04:55:00;;;;;;;19.40;12.97;;;;;;;10.03;93.51;99705.44;4945246;29;20649;-89
2022/05/09 04:57:26;;;;;;;23.90;13.00;;;;;;;10.52;96.78;99826.91;4948180;29;20188;-89
2022/05/09 04:59:52;;;;;;;20.33;13.03;;;;;;;9.81;99.04;99722.84;4974576;28;20208;-86
2022/05/09 05:02:18;;;;;;;21.27;13.13;;;;;;;10.90;99.80;99930.13;4979234;28;20216;-87
2022/05/09 05:04:43;;;;;;;24.73;13.63;;;;;;;10.08;98.58;99725.91;4961328;28;20549;-89
2022/05/09 05:07:09;;;;;;;25.07;14.67;;;;;;;11.24;96.85;99893.84;4960239;28;20185;-89
2022/05/09 05:09:35;;;;;;;22.73;13.53;;;;;;;11.93;95.09;99956.38;4958252;29;20180;-88
2022/05/09 05:12:01;;;;;;;26.07;14.23;;;;;;;11.33;92.71;99802.19;4942232;29;20220;-86
2022/05/09 05:14:27;;;;;;;22.83;14.43;;;;;;;8.88;90.17;99333.28;4938690;29;20281;-88
2022/05/09 05:17:01;;;;;;;20.63;13.57;;;;;;;8.69;90.16;99339.88;4951354;29;20184;-90
2022/05/09 05:19:37;;;;;;;27.03;15.17;;;;;;;11.09;88.97;99700.56;4950398;29;20256;-90
2022/05/09 05:22:05;;;;;;;20.93;13.90;;;;;;;12.38;88.90;99939.84;4962336;29;20251;-90
2022/05/09 05:24:36;;;;;;;24.80;14.43;;;;;;;8.78;88.86;99310.91;4940425;29;20235;-89
2022/05/09 05:27:03;;;;;;;23.70;14.30;;;;;;;11.98;87.96;99837.31;4931657;29;20172;-89
2022/05/09 05:29:28;;;;;;;21.93;14.67;;;;;;;11.80;89.72;99839.91;4930751;29;20195;-90
2022/05/09 05:31:54;;;;;;;27.13;14.97;;;;;;;12.51;90.22;99953.94;4958474;29;20209;-89
2022/05/09 05:34:19;;;;;;;39.10;15.33;;;;;;;11.50;87.73;99706.63;4938584;29;20189;-88
2022/05/09 05:36:45;;;;;;;28.10;15.60;;;;;;;12.30;87.99;99903.09;4925070;29;20207;-88
2022/05/09 05:39:15;;;;;;;27.90;15.70;;;;;;;12.72;87.48;99891.38;4926970;29;20286;-89
2022/05/09 05:41:44;;;;;;;23.47;15.00;;;;;;;12.50;86.98;99868.44;4926409;29;20209;-88
2022/05/09 05:44:11;;;;;;;24.83;15.80;;;;;;;12.24;88.57;99860.53;4950170;29;20277;-86
2022/05/09 05:46:44;;;;;;;24.20;15.67;;;;;;;11.81;90.46;99808.69;4939625;29;20201;-89
2022/05/09 05:49:10;;;;;;;23.47;14.90;;;;;;;11.60;87.71;99680.84;4939748;29;20199;-90
2022/05/09 05:51:39;;;;;;;28.07;15.80;;;;;;;13.65;84.55;99949.56;4956113;29;20217;-91
2022/05/09 05:54:05;;;;;;;30.53;15.03;;;;;;;13.25;83.45;99860.59;4925568;29;20181;-87
2022/05/09 05:56:53;;;;;;;26.70;14.57;;;;;;;9.72;82.51;99300.25;5129720;27;20296;-86
2022/05/09 05:59:25;;;;;;;21.47;13.97;;;;;;;10.22;81.47;99319.34;5112213;28;20258;-90
2022/05/09 06:01:51;;;;;;;21.13;13.47;;;;;;;11.12;79.99;99461.66;5111851;28;20190;-88
2022/05/09 06:04:27;;;;;;;28.67;15.10;;;;;;;12.53;82.04;99741.56;5109460;28;20209;-90
2022/05/09 06:06:53;;;;;;;23.53;14.57;;;;;;;9.67;81.07;99218.25;5107808;28;20324;-90
2022/05/09 06:09:19;;;;;;;25.23;14.97;;;;;;;14.14;80.80;99960.88;5091104;28;20208;-88
2022/05/09 06:11:45;;;;;;;24.87;15.20;;;;;;;14.48;78.82;99979.19;5092745;28;20183;-91
2022/05/09 06:14:11;;;;;;;27.27;15.20;;;;;;;11.36;77.45;99416.19;5081789;28;20239;-91
2022/05/09 06:16:42;;;;;;;24.87;14.37;;;;;;;10.77;76.87;99337.75;5088589;28;20232;-89
2022/05/09 06:19:08;;;;;;;23.93;14.57;;;;;;;10.99;76.67;99355.53;5088674;28;20196;-88
2022/05/09 06:21:38;;;;;;;25.57;13.97;;;;;;;14.48;76.56;99963.00;5089385;28;20183;-92
2022/05/09 06:24:05;;;;;;;24.73;13.00;;;;;;;11.03;73.88;99310.13;5088957;28;20181;-91
2022/05/09 06:26:34;;;;;;;24.87;13.20;;;;;;;10.63;74.98;99291.56;5094177;28;20275;-89
2022/05/09 06:29:00;;;;;;;24.40;13.67;;;;;;;12.35;75.24;99548.72;5097172;28;20220;-92
2022/05/09 06:31:29;;;;;;;26.57;13.87;;;;;;;10.88;73.32;99268.97;5089600;28;20203;-90
2022/05/09 06:33:57;;;;;;;20.67;13.33;;;;;;;13.81;71.46;99661.81;5089454;28;20187;-92
2022/05/09 06:36:22;;;;;;;21.70;13.53;;;;;;;15.30;70.52;99929.41;5089274;28;20226;-90
2022/05/09 06:38:51;;;;;;;21.90;13.70;;;;;;;13.63;68.98;99595.00;5089927;28;20200;-90
2022/05/09 06:41:17;;;;;;;20.57;13.10;;;;;;;11.40;69.40;99283.72;5091218;28;20240;-89
2022/05/09 06:43:47;;;;;;;23.77;13.40;;;;;;;11.67;69.56;99325.31;5090808;28;20169;-92
2022/05/09 06:46:12;;;;;;;20.37;13.23;;;;;;;11.29;69.98;99290.03;5090576;28;20224;-93
2022/05/09 06:48:38;;;;;;;20.63;13.43;;;;;;;15.40;69.49;99961.22;5089245;28;20211;-92
2022/05/09 06:51:04;;;;;;;19.27;12.90;;;;;;;11.43;68.85;99283.81;5088104;28;20181;-90
2022/05/09 06:53:30;;;;;;;19.67;13.30;;;;;;;15.31;70.78;99958.34;5089226;28;20204;-91
2022/05/09 06:55:56;;;;;;;17.47;13.20;;;;;;;15.81;68.49;99971.13;5088918;28;20252;-90
2022/05/09 06:58:24;;;;;;;18.73;13.00;;;;;;;12.34;70.32;99446.31;5091001;28;20173;-89
2022/05/09 07:00:51;;;;;;;24.10;13.70;;;;;;;11.44;69.72;99290.63;5090542;28;20180;-91
2022/05/09 07:03:21;;;;;;;24.17;14.73;;;;;;;14.96;72.67;99949.50;5087949;28;20153;-90
2022/05/09 07:05:48;;;;;;;20.50;13.23;;;;;;;15.95;69.01;99971.56;5086401;28;20219;-92
2022/05/09 07:08:15;;;;;;;19.03;13.23;;;;;;;13.17;65.25;99415.44;5071936;28;20189;-91
2022/05/09 07:10:42;;;;;;;20.80;13.10;;;;;;;13.03;64.21;99348.88;5055505;28;20181;-91
2022/05/09 07:13:08;;;;;;;20.17;12.77;;;;;;;16.27;63.71;99918.88;5057722;28;20256;-90
2022/05/09 07:15:37;;;;;;;18.30;12.13;;;;;;;16.27;62.69;99866.09;5073485;28;20200;-92
2022/05/09 07:18:05;;;;;;;18.47;12.20;;;;;;;15.60;59.77;99648.81;5055383;28;20193;-91
2022/05/09 07:20:33;;;;;;;15.27;11.33;;;;;;;16.69;58.78;99805.09;5075961;28;20146;-89
2022/05/09 07:23:10;;;;;;;17.67;11.93;;;;;;;14.50;57.02;99343.19;5061083;28;20189;-92
2022/05/09 07:25:36;;;;;;;18.00;11.17;;;;;;;14.73;56.04;99385.44;5060899;28;20175;-88
2022/05/09 07:28:05;;;;;;;20.07;10.77;;;;;;;14.40;55.12;99320.84;5078231;28;20252;-91
2022/05/09 07:30:31;;;;;;;16.40;10.47;;;;;;;14.47;54.87;99320.22;5072154;28;20261;-92
2022/05/09 07:32:57;;;;;;;18.43;12.20;;;;;;;15.24;54.79;99438.63;5068971;28;20195;-93
2022/05/09 07:35:23;;;;;;;17.73;10.27;;;;;;;15.98;54.00;99518.78;5067990;28;20200;-91
2022/05/09 07:37:49;;;;;;;17.60;11.30;;;;;;;16.07;55.15;99509.63;5072148;28;20176;-88
2022/05/09 07:40:18;;;;;;;14.73;9.90;;;;;;;15.21;53.45;99351.84;5095176;28;20209;-88
2022/05/09 07:42:46;;;;;;;17.77;9.87;;;;;;;16.86;53.91;99696.41;5092317;28;20161;-90
2022/05/09 07:45:16;;;;;;;13.63;9.30;;;;;;;15.45;51.79;99413.66;5059811;28;20968;-90
2022/05/09 07:47:42;;;;;;;12.37;8.33;;;;;;;16.45;52.46;99658.75;5055967;28;20199;-88
2022/05/09 07:50:10;;;;;;;14.03;9.13;;;;;;;15.19;50.97;99341.59;5042938;28;20292;-86
2022/05/09 07:52:35;;;;;;;12.07;8.43;;;;;;;17.15;49.92;99563.16;5064165;28;20212;-88
2022/05/09 07:55:01;;;;;;;11.17;6.70;;;;;;;15.63;49.17;99331.63;5065063;28;20227;-88
2022/05/09 07:57:28;;;;;;;16.10;9.00;;;;;;;15.90;50.29;99337.31;5060588;28;20224;-86
2022/05/09 07:59:53;;;;;;;15.63;9.93;;;;;;;17.41;49.92;99585.00;5060644;28;20327;-88
2022/05/09 08:02:19;;;;;;;13.70;8.57;;;;;;;17.15;49.86;99550.34;5058423;28;20240;-89
2022/05/09 08:04:44;;;;;;;16.10;8.77;;;;;;;17.51;50.07;99656.00;5061551;28;20181;-87
2022/05/09 08:07:10;;;;;;;15.83;9.47;;;;;;;17.17;50.03;99549.56;5061076;28;20237;-87
2022/05/09 08:09:35;;;;;;;14.63;9.63;;;;;;;18.54;49.01;99707.53;5062751;28;20189;-91
2022/05/09 08:12:03;;;;;;;15.67;9.33;;;;;;;18.46;48.52;99682.59;5060337;28;20219;-88
2022/05/09 08:14:49;;;;;;;18.93;10.23;;;;;;;19.96;49.56;99922.03;5063324;28;20181;-93
2022/05/09 08:17:15;;;;;;;20.67;10.87;;;;;;;16.92;49.56;99388.78;5063959;28;20205;-87
2022/05/09 08:19:41;;;;;;;20.40;11.27;;;;;;;19.80;49.29;99843.00;5039960;28;20584;-91
2022/05/09 08:22:07;;;;;;;23.87;12.87;;;;;;;19.55;49.50;99767.31;5034144;28;20189;-89
2022/05/09 08:24:37;;;;;;;27.07;11.60;;;;;;;20.14;48.74;99821.16;5055479;28;20186;-92
2022/05/09 08:27:03;;;;;;;18.27;10.93;;;;;;;19.27;49.14;99647.91;5044526;28;20186;-88
2022/05/09 08:29:29;;;;;;;24.80;11.47;;;;;;;18.26;48.50;99496.00;5039046;28;20220;-90
2022/05/09 08:31:54;;;;;;;15.30;10.47;;;;;;;18.90;48.05;99558.44;5048080;28;20644;-89
2022/05/09 08:34:20;;;;;;;20.77;10.93;;;;;;;18.51;46.75;99381.00;5049619;28;20177;-90
2022/05/09 08:36:46;;;;;;;24.40;11.33;;;;;;;18.91;46.51;99452.44;5038105;28;20201;-88
2022/05/09 08:39:13;;;;;;;20.43;10.63;;;;;;;19.29;47.74;99514.44;5048285;28;20188;-86
2022/05/09 08:41:48;;;;;;;20.20;10.27;;;;;;;18.01;47.69;99354.72;5057643;28;20180;-91
2022/05/09 08:44:27;;;;;;;17.07;10.07;;;;;;;19.86;47.71;99676.06;5043937;28;20239;-92
2022/05/09 08:47:41;;;;;;;21.23;10.97;;;;;;;21.03;48.38;99932.84;5046775;28;20184;-90
2022/05/09 08:50:13;;;;;;;22.10;9.90;;;;;;;21.30;48.17;99927.97;4988279;28;20231;-86
2022/05/09 08:52:50;;;;;;;19.23;9.93;;;;;;;17.97;48.13;99388.81;5002284;28;20741;-85
2022/05/09 08:55:25;;;;;;;18.37;10.10;;;;;;;18.97;49.30;99636.38;5021063;28;20283;-87
2022/05/09 08:58:02;;;;;;;18.70;9.53;;;;;;;20.62;49.45;99913.50;5014851;28;20237;-90
2022/05/09 09:00:31;;;;;;;16.23;9.60;;;;;;;21.06;48.39;99927.72;5033499;28;20202;-88
2022/05/09 09:03:19;;;;;;;17.67;8.90;;;;;;;20.31;48.12;99778.53;5015312;28;20197;-89
2022/05/09 09:05:47;;;;;;;15.03;9.00;;;;;;;19.98;47.29;99723.31;5019885;28;20189;-89
2022/05/09 09:08:38;;;;;;;16.20;8.90;;;;;;;20.95;48.17;99921.59;5033920;28;20210;-88
2022/05/09 09:11:19;;;;;;;17.87;9.53;;;;;;;20.65;47.67;99856.94;5024490;28;20212;-90
2022/05/09 09:14:17;;;;;;;19.47;9.57;;;;;;;21.02;47.46;99895.91;5018671;28;20670;-90
2022/05/09 09:16:58;;;;;;;18.87;9.13;;;;;;;21.14;47.16;99920.97;5000108;28;20203;-91
2022/05/09 09:19:36;;;;;;;14.40;9.10;;;;;;;20.95;48.32;99913.88;4998061;28;20265;-90
2022/05/09 09:22:19;;;;;;;15.63;9.10;;;;;;;21.41;47.85;99913.47;5010589;28;20195;-90
2022/05/09 09:25:24;;;;;;;19.20;10.43;;;;;;;20.51;47.36;99811.34;5020244;28;20332;-89
2022/05/09 09:28:00;;;;;;;17.57;10.17;;;;;;;21.28;47.77;99911.66;5048886;28;20181;-90
2022/05/09 09:30:26;;;;;;;17.83;9.60;;;;;;;21.00;47.02;99753.44;5073544;28;20180;-88
2022/05/09 09:32:56;;;;;;;17.67;9.17;;;;;;;22.29;45.85;99912.38;5055271;28;20181;-88
2022/05/09 09:35:49;;;;;;;16.33;9.83;;;;;;;21.68;45.33;99810.59;5066337;28;20204;-88
2022/05/09 09:38:21;;;;;;;14.20;9.77;;;;;;;21.45;45.08;99737.44;5079584;28;20187;-89
2022/05/09 09:40:47;;;;;;;21.83;10.90;;;;;;;22.72;44.35;99908.28;5076606;28;20173;-86
2022/05/09 09:43:12;;;;;;;30.03;10.60;;;;;;;21.19;44.95;99638.59;5062721;28;20185;-88
2022/05/09 09:45:44;;;;;;;31.00;11.50;;;;;;;23.01;44.06;99899.72;5058843;28;20951;-90
2022/05/09 09:48:17;;;;;;;15.27;10.47;;;;;;;22.58;44.62;99841.97;5057489;28;20185;-90
2022/05/09 09:50:59;;;;;;;14.67;9.77;;;;;;;21.67;44.49;99697.22;5045452;28;20302;-90
2022/05/09 09:53:31;;;;;;;13.67;9.33;;;;;;;22.28;45.25;99843.56;5067619;28;20199;-90
2022/05/09 09:56:24;;;;;;;13.40;8.87;;;;;;;22.20;45.69;99903.72;5058673;28;20346;-88
2022/05/09 09:58:58;;;;;;;15.63;8.87;;;;;;;21.19;46.67;99785.38;5008516;28;20197;-88
2022/05/09 10:01:34;;;;;;;14.17;8.60;;;;;;;21.18;46.89;99748.44;5008887;28;20194;-87
2022/05/09 10:04:14;;;;;;;13.70;8.80;;;;;;;21.80;45.66;99775.44;5023457;28;20205;-88
2022/05/09 10:07:07;;;;;;;15.90;8.70;;;;;;;22.61;45.60;99894.44;5004728;28;20303;-89
2022/05/09 10:09:46;;;;;;;11.60;8.10;;;;;;;21.56;45.13;99663.63;4994590;28;20276;-90
2022/05/09 10:12:27;;;;;;;13.43;8.30;;;;;;;21.95;44.57;99713.66;4993278;28;20219;-89
2022/05/09 10:14:53;;;;;;;15.37;8.17;;;;;;;22.43;45.35;99826.41;5010402;28;20285;-90
2022/05/09 10:17:25;;;;;;;13.20;8.23;;;;;;;23.22;43.35;99898.03;4992238;28;20285;-89
2022/05/09 10:19:51;;;;;;;11.33;7.87;;;;;;;23.16;42.69;99879.06;4993116;28;20252;-89
2022/05/09 10:25:28;;;;;;;13.90;7.80;;;;;;;23.96;41.06;99897.16;5017548;28;20248;-91
2022/05/09 10:28:12;;;;;;;15.17;8.30;;;;;;;24.11;41.08;99891.13;4998807;28;20271;-90
2022/05/09 10:30:42;;;;;;;13.40;7.53;;;;;;;23.40;41.06;99774.00;5006662;28;20245;-87
2022/05/09 10:33:14;;;;;;;12.10;7.40;;;;;;;24.19;40.47;99895.41;5007971;28;20187;-90
2022/05/09 10:35:58;;;;;;;15.63;7.13;;;;;;;23.71;40.82;99893.75;5031607;28;20216;-91
2022/05/09 10:38:40;;;;;;;12.60;7.30;;;;;;;22.40;43.04;99793.72;5064891;28;20260;-90
2022/05/09 10:41:31;;;;;;;11.30;7.57;;;;;;;22.85;42.36;99827.38;5065295;28;20225;-87
2022/05/09 10:44:04;;;;;;;10.97;7.17;;;;;;;23.21;42.38;99888.56;5067902;28;20189;-92
2022/05/09 10:46:59;;;;;;;12.37;7.20;;;;;;;22.95;42.61;99845.47;5067195;28;20189;-92
2022/05/09 10:49:58;;;;;;;8.37;6.80;;;;;;;22.72;41.21;99841.16;5066382;28;20177;-87
2022/05/09 10:52:41;;;;;;;11.03;7.03;;;;;;;23.37;41.63;99885.16;5055537;28;20236;-89
2022/05/09 10:55:26;;;;;;;25.97;8.83;;;;;;;23.60;42.29;99855.81;5067645;28;20221;-91
2022/05/09 10:58:06;;;;;;;8.63;6.87;;;;;;;23.66;42.22;99833.44;5066042;28;20319;-90
2022/05/09 11:00:35;;;;;;;12.27;7.20;;;;;;;22.54;43.21;99752.47;5048819;28;20201;-92
2022/05/09 11:03:22;;;;;;;9.07;5.63;;;;;;;23.35;40.15;99867.88;5065233;28;20192;-86
2022/05/09 11:05:56;;;;;;;10.07;5.77;;;;;;;23.05;40.14;99878.19;5069602;28;20212;-87
2022/05/09 11:08:35;;;;;;;7.63;5.10;;;;;;;23.05;38.76;99811.91;5062163;28;20188;-88
2022/05/09 11:11:16;;;;;;;6.40;4.90;;;;;;;22.82;38.63;99772.31;5064660;28;20180;-88
2022/05/09 11:14:12;;;;;;;8.13;5.57;;;;;;;23.70;37.61;99868.78;5069307;28;20533;-89
2022/05/09 11:16:52;;;;;;;7.13;4.80;;;;;;;22.73;37.77;99731.88;5066189;28;20200;-87
2022/05/09 11:19:55;;;;;;;8.97;5.50;;;;;;;23.15;38.30;99771.44;5066443;28;21097;-88
2022/05/09 11:22:55;;;;;;;7.83;4.83;;;;;;;24.23;36.84;99875.56;5069908;28;20205;-89
2022/05/09 11:25:29;;;;;;;6.47;4.80;;;;;;;23.66;35.72;99673.13;5075206;28;20211;-86
2022/05/09 11:28:26;;;;;;;13.07;4.90;;;;;;;25.34;34.51;99867.97;5069531;28;20354;-89
2022/05/09 11:31:25;;;;;;;9.93;4.28;;;;;;;25.89;32.93;99786.19;5061084;28;20191;-88
2022/05/09 11:34:32;;;;;;;18.02;5.40;;;;;;;26.88;32.11;99867.16;5064242;28;20660;-89
2022/05/09 11:37:28;;;;;;;6.63;4.97;;;;;;;27.02;32.97;99855.66;5067822;28;20187;-87
2022/05/09 11:40:15;;;;;;;8.85;4.80;;;;;;;27.20;33.67;99845.84;5068788;28;20184;-87
2022/05/09 11:45:48;;;;;;;6.60;4.57;;;;;;;27.32;33.92;99836.97;5070378;28;20200;-88
2022/05/09 11:48:27;;;;;;;9.15;4.88;;;;;;;26.66;33.51;99641.41;5065487;28;20212;-89
2022/05/09 11:51:13;;;;;;;26.77;6.20;;;;;;;28.80;32.41;99841.88;5060384;28;20236;-85
2022/05/09 11:53:44;;;;;;;6.45;4.45;;;;;;;28.44;32.35;99814.84;5072019;28;20171;-87